sensor_id;sensor_type;location;lat;lon;timestamp;temperature;humidity
15133;DHT22;7667;51.232;17.110;2023-10-19T00:00:50;3.40;99.90
15133;DHT22;7667;51.232;17.110;2023-10-19T00:03:19;3.40;99.90
15133;DHT22;7667;51.232;17.110;2023-10-19T00:05:46;3.40;99.90
15133;DHT22;7667;51.232;17.110;2023-10-19T00:08:14;3.40;99.90
15133;DHT22;7667;51.232;17.110;2023-10-19T00:10:49;3.30;99.90
15133;DHT22;7667;51.232;17.110;2023-10-19T00:13:32;3.30;99.90
15133;DHT22;7667;51.232;17.110;2023-10-19T00:16:03;3.40;99.90
15133;DHT22;7667;51.232;17.110;2023-10-19T00:18:45;3.40;99.90
15133;DHT22;7667;51.232;17.110;2023-10-19T00:21:16;3.40;99.90
15133;DHT22;7667;51.232;17.110;2023-10-19T00:23:56;3.40;99.90
15133;DHT22;7667;51.232;17.110;2023-10-19T00:26:26;3.40;99.90
15133;DHT22;7667;51.232;17.110;2023-10-19T00:28:56;3.50;99.90
15133;DHT22;7667;51.232;17.110;2023-10-19T00:31:25;3.50;99.90
15133;DHT22;7667;51.232;17.110;2023-10-19T00:34:01;3.50;99.90
15133;DHT22;7667;51.232;17.110;2023-10-19T00:36:30;3.50;99.90
15133;DHT22;7667;51.232;17.110;2023-10-19T00:38:58;3.50;99.90
15133;DHT22;7667;51.232;17.110;2023-10-19T00:41:28;3.40;99.90
15133;DHT22;7667;51.232;17.110;2023-10-19T00:43:59;3.40;99.90
15133;DHT22;7667;51.232;17.110;2023-10-19T00:46:39;3.40;99.90
15133;DHT22;7667;51.232;17.110;2023-10-19T00:49:13;3.40;99.90
15133;DHT22;7667;51.232;17.110;2023-10-19T00:51:48;3.30;99.90
15133;DHT22;7667;51.232;17.110;2023-10-19T00:57:19;3.20;99.90
15133;DHT22;7667;51.232;17.110;2023-10-19T01:00:01;3.00;99.90
15133;DHT22;7667;51.232;17.110;2023-10-19T01:02:41;3.00;99.90
15133;DHT22;7667;51.232;17.110;2023-10-19T01:05:13;2.90;99.90
15133;DHT22;7667;51.232;17.110;2023-10-19T01:07:41;2.80;99.90
15133;DHT22;7667;51.232;17.110;2023-10-19T01:10:12;2.70;99.90
15133;DHT22;7667;51.232;17.110;2023-10-19T01:12:47;2.70;99.90
15133;DHT22;7667;51.232;17.110;2023-10-19T01:15:18;2.90;99.90
15133;DHT22;7667;51.232;17.110;2023-10-19T01:17:54;3.00;99.90
15133;DHT22;7667;51.232;17.110;2023-10-19T01:20:27;3.00;99.90
15133;DHT22;7667;51.232;17.110;2023-10-19T01:22:59;3.00;99.90
15133;DHT22;7667;51.232;17.110;2023-10-19T01:28:35;2.80;99.90
15133;DHT22;7667;51.232;17.110;2023-10-19T01:31:21;2.60;99.90
15133;DHT22;7667;51.232;17.110;2023-10-19T01:33:59;2.70;99.90
15133;DHT22;7667;51.232;17.110;2023-10-19T01:36:36;2.60;99.90
15133;DHT22;7667;51.232;17.110;2023-10-19T01:39:10;2.50;99.90
15133;DHT22;7667;51.232;17.110;2023-10-19T01:41:38;2.50;99.90
15133;DHT22;7667;51.232;17.110;2023-10-19T01:44:08;2.30;99.90
15133;DHT22;7667;51.232;17.110;2023-10-19T01:46:41;2.30;99.90
15133;DHT22;7667;51.232;17.110;2023-10-19T01:49:13;2.50;99.90
15133;DHT22;7667;51.232;17.110;2023-10-19T01:51:40;2.40;99.90
15133;DHT22;7667;51.232;17.110;2023-10-19T01:54:11;2.60;99.90
15133;DHT22;7667;51.232;17.110;2023-10-19T01:56:38;2.80;99.90
15133;DHT22;7667;51.232;17.110;2023-10-19T01:59:10;2.80;99.90
15133;DHT22;7667;51.232;17.110;2023-10-19T02:01:38;2.80;99.90
15133;DHT22;7667;51.232;17.110;2023-10-19T02:04:09;2.60;99.90
15133;DHT22;7667;51.232;17.110;2023-10-19T02:06:36;2.50;99.90
15133;DHT22;7667;51.232;17.110;2023-10-19T02:09:13;2.40;99.90
15133;DHT22;7667;51.232;17.110;2023-10-19T02:11:56;2.30;99.90
15133;DHT22;7667;51.232;17.110;2023-10-19T02:14:26;2.40;99.90
15133;DHT22;7667;51.232;17.110;2023-10-19T02:17:00;2.40;99.90
15133;DHT22;7667;51.232;17.110;2023-10-19T02:19:29;2.30;99.90
15133;DHT22;7667;51.232;17.110;2023-10-19T02:21:59;2.30;99.90
15133;DHT22;7667;51.232;17.110;2023-10-19T02:24:30;2.30;99.90
15133;DHT22;7667;51.232;17.110;2023-10-19T02:26:59;2.40;99.90
15133;DHT22;7667;51.232;17.110;2023-10-19T02:29:31;2.40;99.90
15133;DHT22;7667;51.232;17.110;2023-10-19T02:31:59;2.40;99.90
15133;DHT22;7667;51.232;17.110;2023-10-19T02:34:32;2.40;99.90
15133;DHT22;7667;51.232;17.110;2023-10-19T02:37:02;2.40;99.90
15133;DHT22;7667;51.232;17.110;2023-10-19T02:39:29;2.40;99.90
15133;DHT22;7667;51.232;17.110;2023-10-19T02:41:57;2.40;99.90
15133;DHT22;7667;51.232;17.110;2023-10-19T02:44:28;2.40;99.90
15133;DHT22;7667;51.232;17.110;2023-10-19T02:46:58;2.40;99.90
15133;DHT22;7667;51.232;17.110;2023-10-19T02:49:27;2.40;99.90
15133;DHT22;7667;51.232;17.110;2023-10-19T02:51:57;2.40;99.90
15133;DHT22;7667;51.232;17.110;2023-10-19T02:54:31;2.40;99.90
15133;DHT22;7667;51.232;17.110;2023-10-19T02:57:03;2.40;99.90
15133;DHT22;7667;51.232;17.110;2023-10-19T02:59:34;2.30;99.90
15133;DHT22;7667;51.232;17.110;2023-10-19T03:02:02;2.30;99.90
15133;DHT22;7667;51.232;17.110;2023-10-19T03:04:40;2.20;99.90
15133;DHT22;7667;51.232;17.110;2023-10-19T03:07:09;2.20;99.90
15133;DHT22;7667;51.232;17.110;2023-10-19T03:09:39;2.30;99.90
15133;DHT22;7667;51.232;17.110;2023-10-19T03:12:06;2.60;99.90
15133;DHT22;7667;51.232;17.110;2023-10-19T03:14:41;2.70;99.90
15133;DHT22;7667;51.232;17.110;2023-10-19T03:17:08;2.80;99.90
15133;DHT22;7667;51.232;17.110;2023-10-19T03:19:37;2.80;99.90
15133;DHT22;7667;51.232;17.110;2023-10-19T03:22:05;2.80;99.90
15133;DHT22;7667;51.232;17.110;2023-10-19T03:24:33;2.80;99.90
15133;DHT22;7667;51.232;17.110;2023-10-19T03:27:05;2.80;99.90
15133;DHT22;7667;51.232;17.110;2023-10-19T03:29:52;2.80;99.90
15133;DHT22;7667;51.232;17.110;2023-10-19T03:32:24;2.70;99.90
15133;DHT22;7667;51.232;17.110;2023-10-19T03:34:59;2.70;99.90
15133;DHT22;7667;51.232;17.110;2023-10-19T03:37:28;2.70;99.90
15133;DHT22;7667;51.232;17.110;2023-10-19T03:39:58;2.80;99.90
15133;DHT22;7667;51.232;17.110;2023-10-19T03:42:26;2.80;99.90
15133;DHT22;7667;51.232;17.110;2023-10-19T03:44:56;2.70;99.90
15133;DHT22;7667;51.232;17.110;2023-10-19T03:47:24;2.50;99.90
15133;DHT22;7667;51.232;17.110;2023-10-19T03:50:01;2.40;99.90
15133;DHT22;7667;51.232;17.110;2023-10-19T03:52:37;2.30;99.90
15133;DHT22;7667;51.232;17.110;2023-10-19T03:55:06;2.30;99.90
15133;DHT22;7667;51.232;17.110;2023-10-19T03:57:46;2.20;99.90
15133;DHT22;7667;51.232;17.110;2023-10-19T04:00:17;2.20;99.90
15133;DHT22;7667;51.232;17.110;2023-10-19T04:03:04;2.20;99.90
15133;DHT22;7667;51.232;17.110;2023-10-19T04:05:32;2.20;99.90
15133;DHT22;7667;51.232;17.110;2023-10-19T04:08:05;2.20;99.90
15133;DHT22;7667;51.232;17.110;2023-10-19T04:10:47;2.20;99.90
15133;DHT22;7667;51.232;17.110;2023-10-19T04:13:34;2.40;99.90
15133;DHT22;7667;51.232;17.110;2023-10-19T04:16:04;2.60;99.90
15133;DHT22;7667;51.232;17.110;2023-10-19T04:18:37;2.80;99.90
15133;DHT22;7667;51.232;17.110;2023-10-19T04:21:11;2.90;99.90
15133;DHT22;7667;51.232;17.110;2023-10-19T04:23:38;3.10;99.90
15133;DHT22;7667;51.232;17.110;2023-10-19T04:26:06;3.10;99.90
15133;DHT22;7667;51.232;17.110;2023-10-19T04:28:47;3.20;99.90
15133;DHT22;7667;51.232;17.110;2023-10-19T04:31:17;3.10;99.90
15133;DHT22;7667;51.232;17.110;2023-10-19T04:33:46;3.10;99.90
15133;DHT22;7667;51.232;17.110;2023-10-19T04:36:15;3.20;99.90
15133;DHT22;7667;51.232;17.110;2023-10-19T04:38:43;3.10;99.90
15133;DHT22;7667;51.232;17.110;2023-10-19T04:41:11;3.20;99.90
15133;DHT22;7667;51.232;17.110;2023-10-19T04:43:39;3.20;99.90
15133;DHT22;7667;51.232;17.110;2023-10-19T04:46:08;3.20;99.90
15133;DHT22;7667;51.232;17.110;2023-10-19T04:48:40;3.30;99.90
15133;DHT22;7667;51.232;17.110;2023-10-19T04:51:10;3.30;99.90
15133;DHT22;7667;51.232;17.110;2023-10-19T04:53:38;3.30;99.90
15133;DHT22;7667;51.232;17.110;2023-10-19T04:56:08;3.30;99.90
15133;DHT22;7667;51.232;17.110;2023-10-19T04:58:36;3.20;99.90
15133;DHT22;7667;51.232;17.110;2023-10-19T05:01:04;3.20;99.90
15133;DHT22;7667;51.232;17.110;2023-10-19T05:03:32;3.30;99.90
15133;DHT22;7667;51.232;17.110;2023-10-19T05:06:00;3.30;99.90
15133;DHT22;7667;51.232;17.110;2023-10-19T05:08:28;3.40;99.90
15133;DHT22;7667;51.232;17.110;2023-10-19T05:10:57;3.40;99.90
15133;DHT22;7667;51.232;17.110;2023-10-19T05:13:27;3.40;99.90
15133;DHT22;7667;51.232;17.110;2023-10-19T05:15:55;3.60;99.90
15133;DHT22;7667;51.232;17.110;2023-10-19T05:18:23;3.60;99.90
15133;DHT22;7667;51.232;17.110;2023-10-19T05:20:51;3.70;99.90
15133;DHT22;7667;51.232;17.110;2023-10-19T05:23:26;3.70;99.90
15133;DHT22;7667;51.232;17.110;2023-10-19T05:26:01;3.70;99.90
15133;DHT22;7667;51.232;17.110;2023-10-19T05:28:30;3.80;99.90
15133;DHT22;7667;51.232;17.110;2023-10-19T05:30:58;3.80;99.90
15133;DHT22;7667;51.232;17.110;2023-10-19T05:33:29;3.90;99.90
15133;DHT22;7667;51.232;17.110;2023-10-19T05:35:57;3.90;99.90
15133;DHT22;7667;51.232;17.110;2023-10-19T05:38:25;3.90;99.90
15133;DHT22;7667;51.232;17.110;2023-10-19T05:40:52;4.10;99.90
15133;DHT22;7667;51.232;17.110;2023-10-19T05:43:21;4.10;99.90
15133;DHT22;7667;51.232;17.110;2023-10-19T05:45:48;4.10;99.90
15133;DHT22;7667;51.232;17.110;2023-10-19T05:48:17;4.20;99.90
15133;DHT22;7667;51.232;17.110;2023-10-19T05:50:45;4.20;99.90
15133;DHT22;7667;51.232;17.110;2023-10-19T05:53:13;4.20;99.90
15133;DHT22;7667;51.232;17.110;2023-10-19T05:55:45;4.30;99.90
15133;DHT22;7667;51.232;17.110;2023-10-19T05:58:13;4.30;99.90
15133;DHT22;7667;51.232;17.110;2023-10-19T06:00:42;4.40;99.90
15133;DHT22;7667;51.232;17.110;2023-10-19T06:03:09;4.40;99.90
15133;DHT22;7667;51.232;17.110;2023-10-19T06:05:37;4.40;99.90
15133;DHT22;7667;51.232;17.110;2023-10-19T06:08:05;4.50;99.90
15133;DHT22;7667;51.232;17.110;2023-10-19T06:10:32;4.50;99.90
15133;DHT22;7667;51.232;17.110;2023-10-19T06:13:01;4.50;99.90
15133;DHT22;7667;51.232;17.110;2023-10-19T06:15:29;4.70;99.90
15133;DHT22;7667;51.232;17.110;2023-10-19T06:17:58;4.80;99.90
15133;DHT22;7667;51.232;17.110;2023-10-19T06:20:26;4.90;99.90
15133;DHT22;7667;51.232;17.110;2023-10-19T06:22:57;4.90;99.90
15133;DHT22;7667;51.232;17.110;2023-10-19T06:25:33;4.90;99.90
15133;DHT22;7667;51.232;17.110;2023-10-19T06:28:04;4.90;99.90
15133;DHT22;7667;51.232;17.110;2023-10-19T06:30:32;5.00;99.90
15133;DHT22;7667;51.232;17.110;2023-10-19T06:33:01;5.00;99.90
15133;DHT22;7667;51.232;17.110;2023-10-19T06:35:30;5.20;99.90
15133;DHT22;7667;51.232;17.110;2023-10-19T06:38:00;5.20;99.90
15133;DHT22;7667;51.232;17.110;2023-10-19T06:40:28;5.20;99.90
15133;DHT22;7667;51.232;17.110;2023-10-19T06:42:56;5.30;99.90
15133;DHT22;7667;51.232;17.110;2023-10-19T06:45:25;5.30;99.90
15133;DHT22;7667;51.232;17.110;2023-10-19T06:47:53;5.40;99.90
15133;DHT22;7667;51.232;17.110;2023-10-19T06:50:22;5.30;99.90
15133;DHT22;7667;51.232;17.110;2023-10-19T06:52:51;5.40;99.90
15133;DHT22;7667;51.232;17.110;2023-10-19T06:55:21;5.50;99.90
15133;DHT22;7667;51.232;17.110;2023-10-19T06:57:53;5.50;99.90
15133;DHT22;7667;51.232;17.110;2023-10-19T07:00:24;5.60;99.90
15133;DHT22;7667;51.232;17.110;2023-10-19T07:02:56;5.60;99.90
15133;DHT22;7667;51.232;17.110;2023-10-19T07:05:26;5.60;99.90
15133;DHT22;7667;51.232;17.110;2023-10-19T07:07:57;5.70;99.90
15133;DHT22;7667;51.232;17.110;2023-10-19T07:10:27;5.80;99.90
15133;DHT22;7667;51.232;17.110;2023-10-19T07:12:56;5.90;99.90
15133;DHT22;7667;51.232;17.110;2023-10-19T07:15:25;6.00;99.90
15133;DHT22;7667;51.232;17.110;2023-10-19T07:17:54;6.10;99.90
15133;DHT22;7667;51.232;17.110;2023-10-19T07:20:22;6.00;99.90
15133;DHT22;7667;51.232;17.110;2023-10-19T07:23:01;6.00;99.90
15133;DHT22;7667;51.232;17.110;2023-10-19T07:25:47;6.00;99.90
15133;DHT22;7667;51.232;17.110;2023-10-19T07:28:16;6.00;99.90
15133;DHT22;7667;51.232;17.110;2023-10-19T07:30:44;6.00;99.90
15133;DHT22;7667;51.232;17.110;2023-10-19T07:33:14;5.90;99.90
15133;DHT22;7667;51.232;17.110;2023-10-19T07:35:46;5.90;99.90
15133;DHT22;7667;51.232;17.110;2023-10-19T07:38:14;5.80;99.90
15133;DHT22;7667;51.232;17.110;2023-10-19T07:40:43;5.90;99.90
15133;DHT22;7667;51.232;17.110;2023-10-19T07:43:11;5.90;99.90
15133;DHT22;7667;51.232;17.110;2023-10-19T07:45:39;6.00;99.90
15133;DHT22;7667;51.232;17.110;2023-10-19T07:48:06;6.00;99.90
15133;DHT22;7667;51.232;17.110;2023-10-19T07:50:35;6.10;99.90
15133;DHT22;7667;51.232;17.110;2023-10-19T07:53:04;6.20;99.90
15133;DHT22;7667;51.232;17.110;2023-10-19T07:55:32;6.30;99.90
15133;DHT22;7667;51.232;17.110;2023-10-19T07:58:00;6.50;99.90
15133;DHT22;7667;51.232;17.110;2023-10-19T08:00:28;6.60;99.90
15133;DHT22;7667;51.232;17.110;2023-10-19T08:02:56;6.60;99.90
15133;DHT22;7667;51.232;17.110;2023-10-19T08:05:26;6.60;99.90
15133;DHT22;7667;51.232;17.110;2023-10-19T08:07:53;6.70;99.90
15133;DHT22;7667;51.232;17.110;2023-10-19T08:10:21;6.70;99.90
15133;DHT22;7667;51.232;17.110;2023-10-19T08:12:49;6.80;99.90
15133;DHT22;7667;51.232;17.110;2023-10-19T08:15:17;7.00;99.90
15133;DHT22;7667;51.232;17.110;2023-10-19T08:17:48;7.10;99.90
15133;DHT22;7667;51.232;17.110;2023-10-19T08:20:18;7.10;99.90
15133;DHT22;7667;51.232;17.110;2023-10-19T08:22:54;7.10;99.90
15133;DHT22;7667;51.232;17.110;2023-10-19T08:25:25;7.00;99.90
15133;DHT22;7667;51.232;17.110;2023-10-19T08:28:16;7.00;99.90
15133;DHT22;7667;51.232;17.110;2023-10-19T08:30:44;7.10;99.90
15133;DHT22;7667;51.232;17.110;2023-10-19T08:33:24;7.20;99.90
15133;DHT22;7667;51.232;17.110;2023-10-19T08:35:53;7.20;99.90
15133;DHT22;7667;51.232;17.110;2023-10-19T08:38:22;7.30;99.90
15133;DHT22;7667;51.232;17.110;2023-10-19T08:40:50;7.30;99.90
15133;DHT22;7667;51.232;17.110;2023-10-19T08:43:18;7.30;99.90
15133;DHT22;7667;51.232;17.110;2023-10-19T08:45:46;7.20;99.90
15133;DHT22;7667;51.232;17.110;2023-10-19T08:48:14;7.10;99.90
15133;DHT22;7667;51.232;17.110;2023-10-19T08:50:42;7.10;99.90
15133;DHT22;7667;51.232;17.110;2023-10-19T08:53:10;7.10;99.90
15133;DHT22;7667;51.232;17.110;2023-10-19T08:55:41;7.10;99.90
15133;DHT22;7667;51.232;17.110;2023-10-19T08:58:17;7.10;99.90
15133;DHT22;7667;51.232;17.110;2023-10-19T09:00:48;7.00;99.90
15133;DHT22;7667;51.232;17.110;2023-10-19T09:03:24;7.10;99.90
15133;DHT22;7667;51.232;17.110;2023-10-19T09:05:54;7.20;99.90
15133;DHT22;7667;51.232;17.110;2023-10-19T09:08:21;7.20;99.90
15133;DHT22;7667;51.232;17.110;2023-10-19T09:10:50;7.20;99.90
15133;DHT22;7667;51.232;17.110;2023-10-19T09:13:22;7.20;99.90
15133;DHT22;7667;51.232;17.110;2023-10-19T09:15:52;7.20;99.90
15133;DHT22;7667;51.232;17.110;2023-10-19T09:18:25;7.10;99.90
15133;DHT22;7667;51.232;17.110;2023-10-19T09:20:57;7.10;99.90
15133;DHT22;7667;51.232;17.110;2023-10-19T09:23:48;7.10;99.90
15133;DHT22;7667;51.232;17.110;2023-10-19T09:26:17;7.10;99.90
15133;DHT22;7667;51.232;17.110;2023-10-19T09:28:49;7.10;99.90
15133;DHT22;7667;51.232;17.110;2023-10-19T09:31:18;7.10;99.90
15133;DHT22;7667;51.232;17.110;2023-10-19T09:33:48;7.10;99.90
15133;DHT22;7667;51.232;17.110;2023-10-19T09:36:21;7.10;99.90
15133;DHT22;7667;51.232;17.110;2023-10-19T09:38:50;7.20;99.90
15133;DHT22;7667;51.232;17.110;2023-10-19T09:41:22;7.20;99.90
15133;DHT22;7667;51.232;17.110;2023-10-19T09:43:50;7.30;99.90
15133;DHT22;7667;51.232;17.110;2023-10-19T09:46:26;7.30;99.90
15133;DHT22;7667;51.232;17.110;2023-10-19T09:48:56;7.30;99.90
15133;DHT22;7667;51.232;17.110;2023-10-19T09:51:24;7.30;99.90
15133;DHT22;7667;51.232;17.110;2023-10-19T09:54:02;7.20;99.90
15133;DHT22;7667;51.232;17.110;2023-10-19T09:56:40;7.20;99.90
15133;DHT22;7667;51.232;17.110;2023-10-19T10:02:09;7.20;99.90
15133;DHT22;7667;51.232;17.110;2023-10-19T10:04:42;7.30;99.90
15133;DHT22;7667;51.232;17.110;2023-10-19T10:07:13;7.20;99.90
15133;DHT22;7667;51.232;17.110;2023-10-19T10:10:03;7.20;99.90
15133;DHT22;7667;51.232;17.110;2023-10-19T10:12:32;7.20;99.90
15133;DHT22;7667;51.232;17.110;2023-10-19T10:15:05;7.10;99.90
15133;DHT22;7667;51.232;17.110;2023-10-19T10:17:38;7.20;99.90
15133;DHT22;7667;51.232;17.110;2023-10-19T10:22:45;7.10;99.90
15133;DHT22;7667;51.232;17.110;2023-10-19T10:25:38;7.30;99.90
15133;DHT22;7667;51.232;17.110;2023-10-19T10:28:06;7.40;99.90
15133;DHT22;7667;51.232;17.110;2023-10-19T10:30:36;7.50;99.90
15133;DHT22;7667;51.232;17.110;2023-10-19T10:33:04;7.30;99.90
15133;DHT22;7667;51.232;17.110;2023-10-19T10:38:11;7.30;99.90
15133;DHT22;7667;51.232;17.110;2023-10-19T10:40:49;7.30;99.90
15133;DHT22;7667;51.232;17.110;2023-10-19T10:43:18;7.20;99.90
15133;DHT22;7667;51.232;17.110;2023-10-19T10:45:46;7.30;99.90
15133;DHT22;7667;51.232;17.110;2023-10-19T10:48:16;7.30;99.90
15133;DHT22;7667;51.232;17.110;2023-10-19T10:50:44;7.40;99.90
15133;DHT22;7667;51.232;17.110;2023-10-19T10:53:14;7.40;99.90
15133;DHT22;7667;51.232;17.110;2023-10-19T10:55:42;7.50;99.90
15133;DHT22;7667;51.232;17.110;2023-10-19T10:58:15;7.50;99.90
15133;DHT22;7667;51.232;17.110;2023-10-19T11:00:44;7.50;99.90
15133;DHT22;7667;51.232;17.110;2023-10-19T11:03:14;7.60;99.90
15133;DHT22;7667;51.232;17.110;2023-10-19T11:05:43;7.60;99.90
15133;DHT22;7667;51.232;17.110;2023-10-19T11:08:15;7.50;99.90
15133;DHT22;7667;51.232;17.110;2023-10-19T11:10:45;7.50;99.90
15133;DHT22;7667;51.232;17.110;2023-10-19T11:13:22;7.60;99.90
15133;DHT22;7667;51.232;17.110;2023-10-19T11:15:54;7.70;99.90
15133;DHT22;7667;51.232;17.110;2023-10-19T11:18:39;7.70;99.90
15133;DHT22;7667;51.232;17.110;2023-10-19T11:21:11;7.60;99.90
15133;DHT22;7667;51.232;17.110;2023-10-19T11:23:43;7.60;99.90
15133;DHT22;7667;51.232;17.110;2023-10-19T11:26:12;7.70;99.90
15133;DHT22;7667;51.232;17.110;2023-10-19T11:28:41;7.70;99.90
15133;DHT22;7667;51.232;17.110;2023-10-19T11:31:19;7.60;99.90
15133;DHT22;7667;51.232;17.110;2023-10-19T11:33:51;7.50;99.90
15133;DHT22;7667;51.232;17.110;2023-10-19T11:36:21;7.50;99.90
15133;DHT22;7667;51.232;17.110;2023-10-19T11:38:51;7.50;99.90
15133;DHT22;7667;51.232;17.110;2023-10-19T11:41:20;7.50;99.90
15133;DHT22;7667;51.232;17.110;2023-10-19T11:43:48;7.40;99.90
15133;DHT22;7667;51.232;17.110;2023-10-19T11:46:17;7.30;99.90
15133;DHT22;7667;51.232;17.110;2023-10-19T11:48:45;7.30;99.90
15133;DHT22;7667;51.232;17.110;2023-10-19T11:51:14;7.40;99.90
15133;DHT22;7667;51.232;17.110;2023-10-19T11:53:42;7.40;99.90
15133;DHT22;7667;51.232;17.110;2023-10-19T11:56:11;7.50;99.90
15133;DHT22;7667;51.232;17.110;2023-10-19T11:58:40;7.50;99.90
15133;DHT22;7667;51.232;17.110;2023-10-19T12:01:14;7.50;99.90
15133;DHT22;7667;51.232;17.110;2023-10-19T12:03:45;7.60;99.90
15133;DHT22;7667;51.232;17.110;2023-10-19T12:06:14;7.50;99.90
15133;DHT22;7667;51.232;17.110;2023-10-19T12:08:51;7.50;99.90
15133;DHT22;7667;51.232;17.110;2023-10-19T12:11:18;7.40;99.90
15133;DHT22;7667;51.232;17.110;2023-10-19T12:13:46;7.40;99.90
15133;DHT22;7667;51.232;17.110;2023-10-19T12:16:15;7.40;99.90
15133;DHT22;7667;51.232;17.110;2023-10-19T12:18:44;7.50;99.90
15133;DHT22;7667;51.232;17.110;2023-10-19T12:21:13;7.50;99.90
15133;DHT22;7667;51.232;17.110;2023-10-19T12:23:42;7.50;99.90
15133;DHT22;7667;51.232;17.110;2023-10-19T12:26:11;7.50;99.90
15133;DHT22;7667;51.232;17.110;2023-10-19T12:28:39;7.60;99.90
15133;DHT22;7667;51.232;17.110;2023-10-19T12:31:08;7.50;99.90
15133;DHT22;7667;51.232;17.110;2023-10-19T12:33:40;7.60;99.90
15133;DHT22;7667;51.232;17.110;2023-10-19T12:36:08;7.70;99.90
15133;DHT22;7667;51.232;17.110;2023-10-19T12:38:55;7.70;99.90
15133;DHT22;7667;51.232;17.110;2023-10-19T12:41:22;7.80;99.90
15133;DHT22;7667;51.232;17.110;2023-10-19T12:43:51;7.70;99.90
15133;DHT22;7667;51.232;17.110;2023-10-19T12:46:21;7.90;99.90
15133;DHT22;7667;51.232;17.110;2023-10-19T12:48:52;7.90;99.90
15133;DHT22;7667;51.232;17.110;2023-10-19T12:51:22;8.00;99.90
15133;DHT22;7667;51.232;17.110;2023-10-19T12:53:53;8.00;99.90
15133;DHT22;7667;51.232;17.110;2023-10-19T12:56:22;8.00;99.90
15133;DHT22;7667;51.232;17.110;2023-10-19T12:58:56;8.00;99.90
15133;DHT22;7667;51.232;17.110;2023-10-19T13:01:24;8.00;99.90
15133;DHT22;7667;51.232;17.110;2023-10-19T13:03:52;7.90;99.90
15133;DHT22;7667;51.232;17.110;2023-10-19T13:06:20;8.00;99.90
15133;DHT22;7667;51.232;17.110;2023-10-19T13:08:47;8.10;99.90
15133;DHT22;7667;51.232;17.110;2023-10-19T13:11:15;8.00;99.90
15133;DHT22;7667;51.232;17.110;2023-10-19T13:13:46;8.00;99.90
15133;DHT22;7667;51.232;17.110;2023-10-19T13:16:15;8.00;99.90
15133;DHT22;7667;51.232;17.110;2023-10-19T13:18:43;8.10;99.90
15133;DHT22;7667;51.232;17.110;2023-10-19T13:21:11;8.10;99.90
15133;DHT22;7667;51.232;17.110;2023-10-19T13:23:44;8.10;99.90
15133;DHT22;7667;51.232;17.110;2023-10-19T13:26:12;8.00;99.90
15133;DHT22;7667;51.232;17.110;2023-10-19T13:28:44;8.00;99.90
15133;DHT22;7667;51.232;17.110;2023-10-19T13:31:12;8.00;99.90
15133;DHT22;7667;51.232;17.110;2023-10-19T13:33:43;8.10;99.90
15133;DHT22;7667;51.232;17.110;2023-10-19T13:36:12;8.00;99.90
15133;DHT22;7667;51.232;17.110;2023-10-19T13:38:41;8.10;99.90
15133;DHT22;7667;51.232;17.110;2023-10-19T13:41:09;8.10;99.90
15133;DHT22;7667;51.232;17.110;2023-10-19T13:43:41;8.10;99.90
15133;DHT22;7667;51.232;17.110;2023-10-19T13:46:12;8.10;99.90
15133;DHT22;7667;51.232;17.110;2023-10-19T13:48:39;8.00;99.90
15133;DHT22;7667;51.232;17.110;2023-10-19T13:51:07;8.10;99.90
15133;DHT22;7667;51.232;17.110;2023-10-19T13:53:42;8.10;99.90
15133;DHT22;7667;51.232;17.110;2023-10-19T13:56:13;8.00;99.90
15133;DHT22;7667;51.232;17.110;2023-10-19T13:58:42;8.00;99.90
15133;DHT22;7667;51.232;17.110;2023-10-19T14:01:10;8.00;99.90
15133;DHT22;7667;51.232;17.110;2023-10-19T14:03:41;8.00;99.90
15133;DHT22;7667;51.232;17.110;2023-10-19T14:06:13;8.00;99.90
15133;DHT22;7667;51.232;17.110;2023-10-19T14:08:41;8.00;99.90
15133;DHT22;7667;51.232;17.110;2023-10-19T14:11:09;8.10;99.90
15133;DHT22;7667;51.232;17.110;2023-10-19T14:13:37;8.10;99.90
15133;DHT22;7667;51.232;17.110;2023-10-19T14:16:07;8.00;99.90
15133;DHT22;7667;51.232;17.110;2023-10-19T14:18:36;8.00;99.90
15133;DHT22;7667;51.232;17.110;2023-10-19T14:21:11;8.00;99.90
15133;DHT22;7667;51.232;17.110;2023-10-19T14:23:41;8.00;99.90
15133;DHT22;7667;51.232;17.110;2023-10-19T14:26:10;8.00;99.90
15133;DHT22;7667;51.232;17.110;2023-10-19T14:28:39;8.00;99.90
15133;DHT22;7667;51.232;17.110;2023-10-19T14:31:08;8.00;99.90
15133;DHT22;7667;51.232;17.110;2023-10-19T14:33:36;8.00;99.90
15133;DHT22;7667;51.232;17.110;2023-10-19T14:36:05;7.90;99.90
15133;DHT22;7667;51.232;17.110;2023-10-19T14:38:33;7.90;99.90
15133;DHT22;7667;51.232;17.110;2023-10-19T14:41:01;7.90;99.90
15133;DHT22;7667;51.232;17.110;2023-10-19T14:43:28;8.00;99.90
15133;DHT22;7667;51.232;17.110;2023-10-19T14:45:57;8.00;99.90
15133;DHT22;7667;51.232;17.110;2023-10-19T14:48:24;7.90;99.90
15133;DHT22;7667;51.232;17.110;2023-10-19T14:50:53;7.90;99.90
15133;DHT22;7667;51.232;17.110;2023-10-19T14:53:24;7.90;99.90
15133;DHT22;7667;51.232;17.110;2023-10-19T14:55:54;8.00;99.90
15133;DHT22;7667;51.232;17.110;2023-10-19T14:58:24;8.00;99.90
15133;DHT22;7667;51.232;17.110;2023-10-19T15:00:56;8.00;99.90
15133;DHT22;7667;51.232;17.110;2023-10-19T15:03:25;7.90;99.90
15133;DHT22;7667;51.232;17.110;2023-10-19T15:05:53;7.90;99.90
15133;DHT22;7667;51.232;17.110;2023-10-19T15:08:21;7.90;99.90
15133;DHT22;7667;51.232;17.110;2023-10-19T15:10:54;7.90;99.90
15133;DHT22;7667;51.232;17.110;2023-10-19T15:13:22;7.90;99.90
15133;DHT22;7667;51.232;17.110;2023-10-19T15:15:49;7.90;99.90
15133;DHT22;7667;51.232;17.110;2023-10-19T15:18:18;7.90;99.90
15133;DHT22;7667;51.232;17.110;2023-10-19T15:20:45;7.80;99.90
15133;DHT22;7667;51.232;17.110;2023-10-19T15:23:13;7.90;99.90
15133;DHT22;7667;51.232;17.110;2023-10-19T15:25:41;7.80;99.90
15133;DHT22;7667;51.232;17.110;2023-10-19T15:28:09;7.80;99.90
15133;DHT22;7667;51.232;17.110;2023-10-19T15:30:37;7.90;99.90
15133;DHT22;7667;51.232;17.110;2023-10-19T15:33:05;7.80;99.90
15133;DHT22;7667;51.232;17.110;2023-10-19T15:35:32;7.90;99.90
15133;DHT22;7667;51.232;17.110;2023-10-19T15:38:04;7.90;99.90
15133;DHT22;7667;51.232;17.110;2023-10-19T15:40:32;7.80;99.90
15133;DHT22;7667;51.232;17.110;2023-10-19T15:43:02;7.80;99.90
15133;DHT22;7667;51.232;17.110;2023-10-19T15:45:29;7.80;99.90
15133;DHT22;7667;51.232;17.110;2023-10-19T15:48:02;7.80;99.90
15133;DHT22;7667;51.232;17.110;2023-10-19T15:50:30;7.80;99.90
15133;DHT22;7667;51.232;17.110;2023-10-19T15:52:57;7.80;99.90
15133;DHT22;7667;51.232;17.110;2023-10-19T15:55:25;7.80;99.90
15133;DHT22;7667;51.232;17.110;2023-10-19T15:57:54;7.80;99.90
15133;DHT22;7667;51.232;17.110;2023-10-19T16:00:23;7.80;99.90
15133;DHT22;7667;51.232;17.110;2023-10-19T16:02:50;7.80;99.90
15133;DHT22;7667;51.232;17.110;2023-10-19T16:05:18;7.80;99.90
15133;DHT22;7667;51.232;17.110;2023-10-19T16:07:46;7.80;99.90
15133;DHT22;7667;51.232;17.110;2023-10-19T16:10:14;7.90;99.90
15133;DHT22;7667;51.232;17.110;2023-10-19T16:12:43;7.80;99.90
15133;DHT22;7667;51.232;17.110;2023-10-19T16:15:11;8.00;99.90
15133;DHT22;7667;51.232;17.110;2023-10-19T16:17:43;7.90;99.90
15133;DHT22;7667;51.232;17.110;2023-10-19T16:20:13;8.00;99.90